Terminal Aerodrome Forecast
Issued by NWS Twin Cities, MN

Home | Current Version | Previous Version | Text Only | Print | Product List | Glossary On
Versions: 1 2 3 4 5 6 7 8 9 10 11 12 13 14 15 16 17
762
FTUS43 KMPX 301730
TAFEAU
TAF
KEAU 301730Z 3018/0118 07015G22KT P6SM SCT050 BKN120 OVC250
     FM010100 06010KT P6SM VCSH BKN045 OVC100
     FM010600 04007KT P6SM SCT040 BKN150
     FM011400 05011G17KT P6SM FEW040 SCT250=

USA.gov is the U.S. government's official web portal to all federal, state and local government web resources and services.